createdAt,value
2022-12-31T00:00:00.224Z,100100
2022-12-31T00:01:00.866Z,100100
2022-12-31T00:02:00.323Z,100100
2022-12-31T00:03:00.404Z,100100
2022-12-31T00:04:00.231Z,100090
2022-12-31T00:05:00.282Z,100090
2022-12-31T00:06:00.647Z,100100
2022-12-31T00:07:00.262Z,100100
2022-12-31T00:08:00.250Z,100100
2022-12-31T00:09:01.450Z,100100
2022-12-31T00:10:00.467Z,100100
2022-12-31T00:11:00.231Z,100100
2022-12-31T00:12:00.259Z,100100
2022-12-31T00:13:00.245Z,100100
2022-12-31T00:14:00.592Z,100100
2022-12-31T00:15:00.264Z,100100
2022-12-31T00:16:12.519Z,100100
2022-12-31T00:17:00.307Z,100100
2022-12-31T00:18:00.266Z,100100
2022-12-31T00:19:00.270Z,100100
2022-12-31T00:20:00.304Z,100100
2022-12-31T00:21:03.251Z,100100
2022-12-31T00:22:00.247Z,100100
2022-12-31T00:23:00.233Z,100100
2022-12-31T00:24:00.976Z,100110
2022-12-31T00:25:00.486Z,100110
2022-12-31T00:26:09.747Z,100100
2022-12-31T00:27:00.426Z,100100
2022-12-31T00:28:00.332Z,100100
2022-12-31T00:29:00.835Z,100100
2022-12-31T00:30:04.417Z,100100
2022-12-31T00:31:04.327Z,100100
2022-12-31T00:32:00.241Z,100100
2022-12-31T00:33:00.231Z,100100
2022-12-31T00:34:00.289Z,100110
2022-12-31T00:35:00.237Z,100110
2022-12-31T00:36:04.745Z,100110
2022-12-31T00:37:00.240Z,100110
2022-12-31T00:38:00.229Z,100100
2022-12-31T00:39:00.884Z,100100
2022-12-31T00:40:00.280Z,100100
2022-12-31T00:41:00.324Z,100100
2022-12-31T00:42:00.252Z,100100
2022-12-31T00:43:00.316Z,100100
2022-12-31T00:44:00.296Z,100090
2022-12-31T00:45:00.228Z,100090
2022-12-31T00:46:00.363Z,100090
2022-12-31T00:47:00.238Z,100090
2022-12-31T00:48:00.227Z,100090
2022-12-31T00:49:00.238Z,100090
2022-12-31T00:50:00.256Z,100090
2022-12-31T00:51:00.826Z,100090
2022-12-31T00:52:00.278Z,100100
2022-12-31T00:53:00.226Z,100100
2022-12-31T00:54:00.263Z,100090
2022-12-31T00:55:00.294Z,100090
2022-12-31T00:56:04.922Z,100080
2022-12-31T00:57:00.262Z,100080
2022-12-31T00:58:00.226Z,100090
2022-12-31T00:59:00.340Z,100090
2022-12-31T01:00:00.354Z,100090
2022-12-31T01:01:08.592Z,100090
2022-12-31T01:02:00.382Z,100090
2022-12-31T01:03:00.454Z,100090
2022-12-31T01:04:03.630Z,100080
2022-12-31T01:05:00.275Z,100080
2022-12-31T01:06:00.579Z,100090
2022-12-31T01:07:00.298Z,100090
2022-12-31T01:08:00.451Z,100090
2022-12-31T01:09:00.241Z,100090
2022-12-31T01:10:00.249Z,100100
2022-12-31T01:11:00.519Z,100100
2022-12-31T01:12:00.259Z,100090
2022-12-31T01:13:00.274Z,100090
2022-12-31T01:14:03.429Z,100080
2022-12-31T01:15:00.254Z,100080
2022-12-31T01:16:10.224Z,100080
2022-12-31T01:17:00.242Z,100080
2022-12-31T01:18:00.478Z,100080
2022-12-31T01:19:01.958Z,100080
2022-12-31T01:20:00.236Z,100080
2022-12-31T01:21:01.488Z,100080
2022-12-31T01:22:00.236Z,100080
2022-12-31T01:23:00.226Z,100080
2022-12-31T01:24:00.350Z,100070
2022-12-31T01:25:00.259Z,100070
2022-12-31T01:26:01.136Z,100060
2022-12-31T01:27:00.256Z,100060
2022-12-31T01:28:00.256Z,100060
2022-12-31T01:29:00.256Z,100060
2022-12-31T01:30:00.255Z,100060
2022-12-31T01:31:08.845Z,100060
2022-12-31T01:32:00.264Z,100080
2022-12-31T01:33:00.228Z,100080
2022-12-31T01:34:00.416Z,100080
2022-12-31T01:35:00.242Z,100080
2022-12-31T01:36:00.949Z,100070
2022-12-31T01:37:00.254Z,100070
2022-12-31T01:38:00.287Z,100070
2022-12-31T01:39:00.973Z,100070
2022-12-31T01:40:00.257Z,100070
2022-12-31T01:41:00.505Z,100070
2022-12-31T01:42:00.229Z,100080
2022-12-31T01:43:00.251Z,100080
2022-12-31T01:44:01.791Z,100090
2022-12-31T01:45:00.275Z,100090
2022-12-31T01:46:00.363Z,100090
2022-12-31T01:47:01.520Z,100090
2022-12-31T01:48:00.294Z,100100
2022-12-31T01:49:02.297Z,100100
2022-12-31T01:50:05.478Z,100090
2022-12-31T01:51:00.443Z,100090
2022-12-31T01:52:04.856Z,100090
2022-12-31T01:53:02.256Z,100090
2022-12-31T01:54:01.750Z,100090
2022-12-31T01:55:04.827Z,100090
2022-12-31T01:56:01.172Z,100090
2022-12-31T01:57:00.551Z,100090
2022-12-31T01:58:03.747Z,100090
2022-12-31T01:59:03.983Z,100090
2022-12-31T02:00:00.680Z,100110
2022-12-31T02:01:00.880Z,100110
2022-12-31T02:02:00.408Z,100130
2022-12-31T02:03:00.890Z,100130
2022-12-31T02:04:04.135Z,100130
2022-12-31T02:05:01.675Z,100130
2022-12-31T02:06:05.576Z,100150
2022-12-31T02:07:02.084Z,100150
2022-12-31T02:08:01.497Z,100180
2022-12-31T02:09:00.606Z,100180
2022-12-31T02:10:00.582Z,100200
2022-12-31T02:11:00.475Z,100200
2022-12-31T02:12:00.319Z,100190
2022-12-31T02:13:00.474Z,100190
2022-12-31T02:14:03.540Z,100190
2022-12-31T02:15:00.381Z,100140
2022-12-31T02:16:00.402Z,100100
2022-12-31T02:17:07.744Z,100100
2022-12-31T02:18:06.185Z,100110
2022-12-31T02:19:10.188Z,100110
2022-12-31T02:20:00.234Z,100100
2022-12-31T02:21:10.188Z,100100
2022-12-31T02:22:07.638Z,100110
2022-12-31T02:23:10.195Z,100110
2022-12-31T02:24:10.174Z,100110
2022-12-31T02:25:07.607Z,100110
2022-12-31T02:26:09.196Z,100120
2022-12-31T02:27:02.316Z,100120
2022-12-31T02:28:08.080Z,100130
2022-12-31T02:29:00.239Z,100130
2022-12-31T02:30:00.272Z,100140
2022-12-31T02:31:05.684Z,100140
2022-12-31T02:32:03.683Z,100140
2022-12-31T02:33:05.282Z,100140
2022-12-31T02:34:05.756Z,100140
2022-12-31T02:35:05.965Z,100140
2022-12-31T02:36:02.044Z,100140
2022-12-31T02:37:02.462Z,100140
2022-12-31T02:38:03.635Z,100140
2022-12-31T02:39:02.057Z,100140
2022-12-31T02:40:00.667Z,100140
2022-12-31T02:41:00.472Z,100140
2022-12-31T02:42:00.784Z,100140
2022-12-31T02:43:00.277Z,100140
2022-12-31T02:44:00.778Z,100150
2022-12-31T02:45:00.269Z,100150
2022-12-31T02:46:10.265Z,100140
2022-12-31T02:47:07.561Z,100140
2022-12-31T02:48:10.189Z,100140
2022-12-31T02:49:07.337Z,100140
2022-12-31T02:50:00.208Z,100140
2022-12-31T02:51:10.159Z,100140
2022-12-31T02:52:06.663Z,100140
2022-12-31T02:53:10.192Z,100140
2022-12-31T02:54:10.182Z,100140
2022-12-31T02:55:07.517Z,100140
2022-12-31T02:56:10.192Z,100150
2022-12-31T02:57:06.930Z,100150
2022-12-31T02:58:06.857Z,100140
2022-12-31T02:59:00.234Z,100140
2022-12-31T03:00:02.189Z,100150
2022-12-31T03:01:00.557Z,100150
2022-12-31T03:02:03.814Z,100140
2022-12-31T03:03:01.114Z,100140
2022-12-31T03:04:00.388Z,100140
2022-12-31T03:05:01.222Z,100140
2022-12-31T03:06:02.016Z,100140
2022-12-31T03:07:01.999Z,100140
2022-12-31T03:08:00.259Z,100140
2022-12-31T03:09:01.435Z,100140
2022-12-31T03:10:00.668Z,100140
2022-12-31T03:11:00.236Z,100140
2022-12-31T03:12:00.637Z,100140
2022-12-31T03:13:00.290Z,100140
2022-12-31T03:14:00.268Z,100130
2022-12-31T03:15:00.457Z,100130
2022-12-31T03:16:00.308Z,100140
2022-12-31T03:17:00.234Z,100140
2022-12-31T03:18:01.252Z,100130
2022-12-31T03:19:00.226Z,100130
2022-12-31T03:20:00.233Z,100130
2022-12-31T03:21:00.251Z,100130
2022-12-31T03:22:00.285Z,100130
2022-12-31T03:23:00.703Z,100130
2022-12-31T03:24:00.235Z,100130
2022-12-31T03:25:02.813Z,100130
2022-12-31T03:26:00.554Z,100120
2022-12-31T03:27:00.227Z,100120
2022-12-31T03:28:01.572Z,100120
2022-12-31T03:29:00.229Z,100120
2022-12-31T03:30:00.273Z,100120
2022-12-31T03:31:01.082Z,100120
2022-12-31T03:32:00.279Z,100110
2022-12-31T03:33:00.253Z,100110
2022-12-31T03:34:00.274Z,100110
2022-12-31T03:35:00.229Z,100110
2022-12-31T03:36:04.545Z,100110
2022-12-31T03:37:00.228Z,100110
2022-12-31T03:38:00.772Z,100110
2022-12-31T03:39:00.228Z,100110
2022-12-31T03:40:00.254Z,100120
2022-12-31T03:41:00.261Z,100120
2022-12-31T03:42:00.252Z,100100
2022-12-31T03:43:00.230Z,100100
2022-12-31T03:44:00.221Z,100080
2022-12-31T03:45:00.255Z,100080
2022-12-31T03:46:00.289Z,100100
2022-12-31T03:47:00.229Z,100100
2022-12-31T03:48:00.793Z,100100
2022-12-31T03:49:00.250Z,100100
2022-12-31T03:50:00.377Z,100100
2022-12-31T03:51:00.256Z,100100
2022-12-31T03:52:00.225Z,100100
2022-12-31T03:53:00.746Z,100100
2022-12-31T03:54:00.261Z,100100
2022-12-31T03:55:00.369Z,100100
2022-12-31T03:56:00.233Z,100100
2022-12-31T03:57:00.528Z,100100
2022-12-31T03:58:00.256Z,100100
2022-12-31T03:59:00.233Z,100100
2022-12-31T04:00:00.297Z,100100
2022-12-31T04:01:00.399Z,100100
2022-12-31T04:02:00.372Z,100100
2022-12-31T04:03:00.370Z,100100
2022-12-31T04:04:00.260Z,100100
2022-12-31T04:05:00.236Z,100100
2022-12-31T04:06:00.249Z,100100
2022-12-31T04:07:00.264Z,100100
2022-12-31T04:08:00.240Z,100100
2022-12-31T04:09:00.290Z,100100
2022-12-31T04:10:00.226Z,100100
2022-12-31T04:11:00.258Z,100100
2022-12-31T04:12:00.227Z,100100
2022-12-31T04:13:00.238Z,100100
2022-12-31T04:14:00.261Z,100110
2022-12-31T04:15:00.464Z,100110
2022-12-31T04:16:00.337Z,100110
2022-12-31T04:17:00.355Z,100110
2022-12-31T04:18:00.235Z,100120
2022-12-31T04:19:00.268Z,100120
2022-12-31T04:20:00.307Z,100120
2022-12-31T04:21:01.202Z,100120
2022-12-31T04:22:00.271Z,100110
2022-12-31T04:23:00.252Z,100110
2022-12-31T04:24:00.270Z,100110
2022-12-31T04:25:00.257Z,100110
2022-12-31T04:26:00.311Z,100110
2022-12-31T04:27:06.997Z,100110
2022-12-31T04:28:00.266Z,100110
2022-12-31T04:29:00.293Z,100110
2022-12-31T04:30:00.230Z,100120
2022-12-31T04:31:00.241Z,100120
2022-12-31T04:32:00.502Z,100120
2022-12-31T04:33:00.268Z,100120
2022-12-31T04:34:00.280Z,100110
2022-12-31T04:35:00.225Z,100110
2022-12-31T04:36:01.097Z,100110
2022-12-31T04:37:00.283Z,100110
2022-12-31T04:38:00.231Z,100100
2022-12-31T04:39:00.224Z,100100
2022-12-31T04:40:05.378Z,100090
2022-12-31T04:41:00.350Z,100090
2022-12-31T04:42:00.316Z,100090
2022-12-31T04:43:00.243Z,100090
2022-12-31T04:44:00.306Z,100090
2022-12-31T04:45:00.297Z,100090
2022-12-31T04:46:00.282Z,100080
2022-12-31T04:47:00.248Z,100080
2022-12-31T04:48:00.265Z,100080
2022-12-31T04:49:00.270Z,100080
2022-12-31T04:50:00.237Z,100080
2022-12-31T04:51:00.356Z,100080
2022-12-31T04:52:00.267Z,100080
2022-12-31T04:53:00.224Z,100080
2022-12-31T04:54:00.307Z,100090
2022-12-31T04:55:00.243Z,100090
2022-12-31T04:56:00.289Z,100120
2022-12-31T04:57:00.270Z,100120
2022-12-31T04:58:00.271Z,100090
2022-12-31T04:59:00.234Z,100090
2022-12-31T05:00:00.247Z,100100
2022-12-31T05:01:00.683Z,100100
2022-12-31T05:02:00.462Z,100110
2022-12-31T05:03:00.298Z,100110
2022-12-31T05:04:00.252Z,100110
2022-12-31T05:05:00.236Z,100110
2022-12-31T05:06:01.193Z,100120
2022-12-31T05:07:00.258Z,100120
2022-12-31T05:08:00.252Z,100120
2022-12-31T05:09:00.245Z,100120
2022-12-31T05:10:00.248Z,100120
2022-12-31T05:11:00.242Z,100120
2022-12-31T05:12:00.228Z,100110
2022-12-31T05:13:00.227Z,100110
2022-12-31T05:14:00.233Z,100120
2022-12-31T05:15:00.318Z,100120
2022-12-31T05:16:00.878Z,100120
2022-12-31T05:17:00.369Z,100120
2022-12-31T05:18:00.250Z,100130
2022-12-31T05:19:00.257Z,100130
2022-12-31T05:20:00.265Z,100130
2022-12-31T05:21:00.329Z,100130
2022-12-31T05:22:00.273Z,100140
2022-12-31T05:23:00.523Z,100140
2022-12-31T05:24:00.266Z,100150
2022-12-31T05:25:00.259Z,100150
2022-12-31T05:26:00.293Z,100140
2022-12-31T05:27:00.498Z,100140
2022-12-31T05:28:00.311Z,100150
2022-12-31T05:29:00.292Z,100150
2022-12-31T05:30:00.268Z,100150
2022-12-31T05:31:00.323Z,100150
2022-12-31T05:32:00.237Z,100140
2022-12-31T05:33:00.282Z,100140
2022-12-31T05:34:00.225Z,100140
2022-12-31T05:35:00.549Z,100140
2022-12-31T05:36:00.300Z,100150
2022-12-31T05:37:00.258Z,100150
2022-12-31T05:38:00.349Z,100150
2022-12-31T05:39:00.236Z,100150
2022-12-31T05:40:00.301Z,100150
2022-12-31T05:41:02.822Z,100150
2022-12-31T05:42:00.246Z,100150
2022-12-31T05:43:00.240Z,100150
2022-12-31T05:44:00.244Z,100150
2022-12-31T05:45:00.241Z,100150
2022-12-31T05:46:00.900Z,100150
2022-12-31T05:47:00.252Z,100150
2022-12-31T05:48:00.302Z,100140
2022-12-31T05:49:00.251Z,100140
2022-12-31T05:50:00.252Z,100160
2022-12-31T05:51:00.545Z,100160
2022-12-31T05:52:00.245Z,100150
2022-12-31T05:53:00.255Z,100150
2022-12-31T05:54:00.283Z,100150
2022-12-31T05:55:00.317Z,100150
2022-12-31T05:56:00.259Z,100160
2022-12-31T05:57:00.252Z,100160
2022-12-31T05:58:00.266Z,100170
2022-12-31T05:59:00.263Z,100170
2022-12-31T06:00:00.244Z,100160
2022-12-31T06:01:00.332Z,100160
2022-12-31T06:02:00.252Z,100170
2022-12-31T06:03:00.410Z,100170
2022-12-31T06:04:00.346Z,100160
2022-12-31T06:05:00.323Z,100160
2022-12-31T06:06:00.228Z,100170
2022-12-31T06:07:00.235Z,100170
2022-12-31T06:08:00.255Z,100170
2022-12-31T06:09:00.265Z,100170
2022-12-31T06:10:00.233Z,100180
2022-12-31T06:11:00.234Z,100180
2022-12-31T06:12:00.232Z,100170
2022-12-31T06:13:00.237Z,100170
2022-12-31T06:14:00.247Z,100170
2022-12-31T06:15:00.484Z,100170
2022-12-31T06:16:04.330Z,100160
2022-12-31T06:17:00.788Z,100160
2022-12-31T06:18:00.247Z,100170
2022-12-31T06:19:00.780Z,100170
2022-12-31T06:20:01.157Z,100170
2022-12-31T06:21:00.264Z,100170
2022-12-31T06:22:00.257Z,100180
2022-12-31T06:23:00.266Z,100180
2022-12-31T06:24:00.227Z,100170
2022-12-31T06:25:00.270Z,100170
2022-12-31T06:26:01.129Z,100180
2022-12-31T06:27:00.271Z,100180
2022-12-31T06:28:00.228Z,100170
2022-12-31T06:29:00.263Z,100170
2022-12-31T06:30:00.224Z,100170
2022-12-31T06:31:01.078Z,100170
2022-12-31T06:32:00.233Z,100150
2022-12-31T06:33:00.255Z,100150
2022-12-31T06:34:00.232Z,100140
2022-12-31T06:35:00.267Z,100140
2022-12-31T06:36:01.680Z,100160
2022-12-31T06:37:00.234Z,100160
2022-12-31T06:38:00.313Z,100160
2022-12-31T06:39:00.779Z,100160
2022-12-31T06:40:00.326Z,100170
2022-12-31T06:41:03.765Z,100170
2022-12-31T06:42:00.262Z,100150
2022-12-31T06:43:00.629Z,100150
2022-12-31T06:44:00.266Z,100160
2022-12-31T06:45:00.263Z,100160
2022-12-31T06:46:02.148Z,100160
2022-12-31T06:47:00.241Z,100160
2022-12-31T06:48:00.233Z,100160
2022-12-31T06:49:00.327Z,100160
2022-12-31T06:50:00.224Z,100150
2022-12-31T06:51:04.650Z,100150
2022-12-31T06:52:00.253Z,100160
2022-12-31T06:53:00.221Z,100160
2022-12-31T06:54:00.296Z,100160
2022-12-31T06:55:00.474Z,100160
2022-12-31T06:56:04.541Z,100170
2022-12-31T06:57:00.323Z,100170
2022-12-31T06:58:00.362Z,100160
2022-12-31T06:59:00.483Z,100160
2022-12-31T07:00:00.444Z,100150
2022-12-31T07:01:10.244Z,100150
2022-12-31T07:02:00.349Z,100150
2022-12-31T07:03:03.557Z,100150
2022-12-31T07:04:10.156Z,100140
2022-12-31T07:05:06.865Z,100140
2022-12-31T07:06:05.434Z,100140
2022-12-31T07:07:10.163Z,100140
2022-12-31T07:08:08.554Z,100140
2022-12-31T07:09:09.807Z,100140
2022-12-31T07:10:00.294Z,100140
2022-12-31T07:11:04.153Z,100140
2022-12-31T07:12:05.355Z,100140
2022-12-31T07:13:10.186Z,100140
2022-12-31T07:14:10.159Z,100150
2022-12-31T07:15:04.660Z,100150
2022-12-31T07:16:10.206Z,100140
2022-12-31T07:17:00.233Z,100140
2022-12-31T07:18:00.206Z,100150
2022-12-31T07:19:01.233Z,100150
2022-12-31T07:20:04.192Z,100150
2022-12-31T07:21:00.379Z,100150
2022-12-31T07:22:01.531Z,100150
2022-12-31T07:24:00.434Z,100150
2022-12-31T07:25:00.529Z,100150
2022-12-31T07:26:09.670Z,100160
2022-12-31T07:27:10.162Z,100160
2022-12-31T07:28:10.200Z,100160
2022-12-31T07:29:01.259Z,100160
2022-12-31T07:30:03.698Z,100160
2022-12-31T07:31:01.293Z,100160
2022-12-31T07:32:01.253Z,100170
2022-12-31T07:33:10.161Z,100170
2022-12-31T07:34:08.223Z,100160
2022-12-31T07:35:10.159Z,100160
2022-12-31T07:36:07.713Z,100160
2022-12-31T07:37:06.643Z,100160
2022-12-31T07:38:03.515Z,100170
2022-12-31T07:39:07.653Z,100170
2022-12-31T07:40:10.187Z,100160
2022-12-31T07:41:10.348Z,100160
2022-12-31T07:42:05.205Z,100160
2022-12-31T07:43:10.187Z,100160
2022-12-31T07:44:10.186Z,100160
2022-12-31T07:45:02.959Z,100160
2022-12-31T07:46:09.945Z,100180
2022-12-31T07:47:02.257Z,100180
2022-12-31T07:48:02.692Z,100170
2022-12-31T07:49:00.522Z,100170
2022-12-31T07:50:00.476Z,100170
2022-12-31T07:51:00.397Z,100170
2022-12-31T07:52:00.444Z,100160
2022-12-31T07:53:00.336Z,100160
2022-12-31T07:54:00.258Z,100160
2022-12-31T07:55:00.228Z,100160
2022-12-31T07:56:01.187Z,100150
2022-12-31T07:57:00.381Z,100150
2022-12-31T07:58:04.913Z,100160
2022-12-31T07:59:01.229Z,100160
2022-12-31T08:00:10.184Z,100160
2022-12-31T08:01:00.818Z,100160
2022-12-31T08:02:10.223Z,100160
2022-12-31T08:03:10.200Z,100160
2022-12-31T08:04:10.162Z,100160
2022-12-31T08:05:10.181Z,100160
2022-12-31T08:06:10.156Z,100160
2022-12-31T08:07:10.169Z,100160
2022-12-31T08:08:10.157Z,100150
2022-12-31T08:09:10.198Z,100150
2022-12-31T08:10:05.992Z,100150
2022-12-31T08:11:10.201Z,100150
2022-12-31T08:12:00.872Z,100150
2022-12-31T08:13:02.150Z,100150
2022-12-31T08:14:00.742Z,100170
2022-12-31T08:15:00.622Z,100170
2022-12-31T08:16:01.220Z,100170
2022-12-31T08:17:00.333Z,100170
2022-12-31T08:18:00.343Z,100180
2022-12-31T08:19:00.280Z,100180
2022-12-31T08:20:00.441Z,100160
2022-12-31T08:21:10.156Z,100160
2022-12-31T08:22:01.238Z,100190
2022-12-31T08:23:00.242Z,100190
2022-12-31T08:24:10.191Z,100180
2022-12-31T08:25:00.236Z,100180
2022-12-31T08:26:10.201Z,100200
2022-12-31T08:27:01.226Z,100200
2022-12-31T08:28:01.280Z,100200
2022-12-31T08:29:00.235Z,100200
2022-12-31T08:30:10.216Z,100210
2022-12-31T08:31:02.859Z,100210
2022-12-31T08:32:00.261Z,100220
2022-12-31T08:33:03.509Z,100220
2022-12-31T08:34:06.507Z,100240
2022-12-31T08:35:10.181Z,100240
2022-12-31T08:39:06.320Z,100270
2022-12-31T08:40:01.435Z,100280
2022-12-31T08:41:06.693Z,100280
2022-12-31T08:42:02.515Z,100280
2022-12-31T08:43:06.170Z,100280
2022-12-31T08:44:10.356Z,100280
2022-12-31T08:45:10.319Z,100280
2022-12-31T08:46:01.573Z,100280
2022-12-31T08:47:01.407Z,100300
2022-12-31T08:48:03.073Z,100290
2022-12-31T08:49:00.491Z,100290
2022-12-31T08:50:00.499Z,100300
2022-12-31T08:51:00.445Z,100300
2022-12-31T08:52:00.913Z,100300
2022-12-31T08:53:00.507Z,100300
2022-12-31T08:54:00.615Z,100300
2022-12-31T08:55:00.577Z,100300
2022-12-31T08:56:06.914Z,100310
2022-12-31T08:57:00.390Z,100310
2022-12-31T08:58:07.644Z,100320
2022-12-31T08:59:10.347Z,100320
2022-12-31T09:00:00.390Z,100310
2022-12-31T09:01:01.063Z,100310
2022-12-31T09:02:01.544Z,100330
2022-12-31T09:03:10.348Z,100330
2022-12-31T09:04:08.927Z,100340
2022-12-31T09:05:10.338Z,100340
2022-12-31T09:06:00.386Z,100340
2022-12-31T09:07:01.851Z,100340
2022-12-31T09:08:00.391Z,100350
2022-12-31T09:09:00.389Z,100350
2022-12-31T09:10:10.350Z,100350
2022-12-31T09:11:00.411Z,100350
2022-12-31T09:12:00.429Z,100340
2022-12-31T09:13:06.935Z,100340
2022-12-31T09:14:07.429Z,100350
2022-12-31T09:15:01.403Z,100350
2022-12-31T09:16:06.848Z,100350
2022-12-31T09:17:09.893Z,100350
2022-12-31T09:18:00.556Z,100350
2022-12-31T09:19:00.455Z,100350
2022-12-31T09:20:00.577Z,100370
2022-12-31T09:21:00.489Z,100370
2022-12-31T09:22:00.573Z,100370
2022-12-31T09:23:00.933Z,100370
2022-12-31T09:24:05.937Z,100370
2022-12-31T09:25:00.438Z,100370
2022-12-31T09:26:07.916Z,100380
2022-12-31T09:27:04.826Z,100380
2022-12-31T09:28:03.657Z,100370
2022-12-31T09:29:03.720Z,100370
2022-12-31T09:30:04.029Z,100390
2022-12-31T09:31:05.318Z,100390
2022-12-31T09:32:07.299Z,100390
2022-12-31T09:33:06.138Z,100390
2022-12-31T09:34:03.691Z,100390
2022-12-31T09:35:05.192Z,100390
2022-12-31T09:36:04.235Z,100410
2022-12-31T09:37:04.188Z,100410
2022-12-31T09:38:11.910Z,100390
2022-12-31T09:39:10.318Z,100390
2022-12-31T09:40:09.331Z,100400
2022-12-31T09:41:10.321Z,100400
2022-12-31T09:42:01.393Z,100400
2022-12-31T09:43:10.316Z,100400
2022-12-31T09:44:10.333Z,100400
2022-12-31T09:45:10.349Z,100400
2022-12-31T09:46:08.755Z,100400
2022-12-31T09:47:10.342Z,100400
2022-12-31T09:48:00.397Z,100400
2022-12-31T09:49:01.413Z,100400
2022-12-31T09:50:10.340Z,100400
2022-12-31T09:51:00.394Z,100400
2022-12-31T09:52:10.315Z,100410
2022-12-31T09:53:09.338Z,100410
2022-12-31T09:54:10.311Z,100420
2022-12-31T09:55:01.441Z,100420
2022-12-31T09:56:09.314Z,100420
2022-12-31T09:57:10.343Z,100420
2022-12-31T09:58:10.361Z,100420
2022-12-31T09:59:10.340Z,100420
2022-12-31T10:00:07.728Z,100420
2022-12-31T10:01:09.602Z,100420
2022-12-31T10:02:10.451Z,100420
2022-12-31T10:03:10.336Z,100420
2022-12-31T10:04:01.419Z,100420
2022-12-31T10:05:10.358Z,100420
2022-12-31T10:06:10.342Z,100410
2022-12-31T10:07:08.692Z,100410
2022-12-31T10:08:03.640Z,100420
2022-12-31T10:09:07.874Z,100420
2022-12-31T10:10:07.739Z,100420
2022-12-31T10:11:10.344Z,100420
2022-12-31T10:12:10.322Z,100420
2022-12-31T10:13:00.364Z,100420
2022-12-31T10:14:10.360Z,100420
2022-12-31T10:15:03.665Z,100420
2022-12-31T10:16:04.860Z,100420
2022-12-31T10:17:03.714Z,100420
2022-12-31T10:18:10.319Z,100420
2022-12-31T10:19:07.920Z,100420
2022-12-31T10:20:10.316Z,100420
2022-12-31T10:21:05.383Z,100420
2022-12-31T10:22:10.314Z,100420
2022-12-31T10:23:00.377Z,100420
2022-12-31T10:24:10.325Z,100420
2022-12-31T10:25:00.390Z,100420
2022-12-31T10:26:01.417Z,100420
2022-12-31T10:27:03.638Z,100420
2022-12-31T10:28:10.313Z,100420
2022-12-31T10:29:08.677Z,100420
2022-12-31T10:30:10.357Z,100420
2022-12-31T10:31:10.395Z,100420
2022-12-31T10:32:10.341Z,100410
2022-12-31T10:33:10.315Z,100410
2022-12-31T10:34:00.376Z,100400
2022-12-31T10:35:10.343Z,100400
2022-12-31T10:36:10.317Z,100410
2022-12-31T10:37:05.271Z,100410
2022-12-31T10:38:10.341Z,100410
2022-12-31T10:39:12.859Z,100410
2022-12-31T10:40:07.732Z,100390
2022-12-31T10:41:00.375Z,100390
2022-12-31T10:42:07.739Z,100400
2022-12-31T10:43:10.340Z,100400
2022-12-31T10:44:03.661Z,100390
2022-12-31T10:45:10.350Z,100390
2022-12-31T10:46:00.382Z,100390
2022-12-31T10:47:10.346Z,100390
2022-12-31T10:48:00.392Z,100390
2022-12-31T10:49:01.393Z,100390
2022-12-31T10:50:10.345Z,100390
2022-12-31T10:51:10.337Z,100390
2022-12-31T10:52:10.328Z,100400
2022-12-31T10:53:10.343Z,100400
2022-12-31T10:54:10.343Z,100390
2022-12-31T10:55:10.345Z,100390
2022-12-31T10:56:10.339Z,100390
2022-12-31T10:57:10.312Z,100390
2022-12-31T10:58:04.514Z,100400
2022-12-31T10:59:07.904Z,100400
2022-12-31T11:00:06.096Z,100400
2022-12-31T11:01:10.480Z,100400
2022-12-31T11:02:10.517Z,100410
2022-12-31T11:03:00.469Z,100410
2022-12-31T11:04:10.344Z,100410
2022-12-31T11:05:10.325Z,100410
2022-12-31T11:06:10.313Z,100410
2022-12-31T11:07:03.648Z,100410
2022-12-31T11:08:07.174Z,100410
2022-12-31T11:09:10.342Z,100410
2022-12-31T11:10:00.377Z,100410
2022-12-31T11:11:00.400Z,100410
2022-12-31T11:12:10.315Z,100410
2022-12-31T11:13:10.348Z,100410
2022-12-31T11:14:10.339Z,100410
2022-12-31T11:15:10.312Z,100410
2022-12-31T11:16:08.775Z,100410
2022-12-31T11:17:09.255Z,100410
2022-12-31T11:18:00.395Z,100420
2022-12-31T11:19:10.351Z,100420
2022-12-31T11:20:10.353Z,100410
2022-12-31T11:21:10.330Z,100410
2022-12-31T11:22:00.387Z,100410
2022-12-31T11:23:08.833Z,100410
2022-12-31T11:24:04.724Z,100400
2022-12-31T11:25:10.356Z,100400
2022-12-31T11:26:00.396Z,100420
2022-12-31T11:27:10.347Z,100420
2022-12-31T11:28:07.715Z,100410
2022-12-31T11:29:10.311Z,100410
2022-12-31T11:30:03.888Z,100410
2022-12-31T11:31:00.434Z,100410
2022-12-31T11:32:00.398Z,100420
2022-12-31T11:33:10.341Z,100420
2022-12-31T11:34:10.347Z,100410
2022-12-31T11:35:10.311Z,100410
2022-12-31T11:36:10.348Z,100410
2022-12-31T11:37:10.335Z,100410
2022-12-31T11:38:08.909Z,100430
2022-12-31T11:39:10.315Z,100430
2022-12-31T11:41:04.310Z,100410
2022-12-31T11:42:10.488Z,100410
2022-12-31T11:43:10.484Z,100410
2022-12-31T11:44:10.520Z,100420
2022-12-31T11:45:10.507Z,100420
2022-12-31T11:46:08.058Z,100420
2022-12-31T11:47:01.558Z,100420
2022-12-31T11:48:31.027Z,100430
2022-12-31T11:49:10.508Z,100430
2022-12-31T11:50:10.504Z,100430
2022-12-31T11:51:08.045Z,100430
2022-12-31T11:56:10.370Z,100430
2022-12-31T11:57:03.829Z,100430
2022-12-31T11:58:08.906Z,100430
2022-12-31T11:59:04.788Z,100430
2022-12-31T12:00:03.619Z,100430
2022-12-31T12:01:00.674Z,100430
2022-12-31T12:02:05.353Z,100430
2022-12-31T12:03:02.534Z,100430
2022-12-31T12:04:01.212Z,100430
2022-12-31T12:05:10.088Z,100430
2022-12-31T12:06:00.620Z,100430
2022-12-31T12:07:00.586Z,100430
2022-12-31T12:08:00.830Z,100440
2022-12-31T12:09:03.331Z,100440
2022-12-31T12:10:10.417Z,100430
2022-12-31T12:11:10.520Z,100430
2022-12-31T12:12:02.879Z,100430
2022-12-31T12:13:08.790Z,100430
2022-12-31T12:14:00.602Z,100430
2022-12-31T12:15:05.596Z,100430
2022-12-31T12:16:02.119Z,100430
2022-12-31T12:17:05.102Z,100430
2022-12-31T12:18:06.943Z,100420
2022-12-31T12:19:00.570Z,100420
2022-12-31T12:20:02.713Z,100430
2022-12-31T12:21:04.692Z,100430
2022-12-31T12:22:08.663Z,100430
2022-12-31T12:23:01.804Z,100430
2022-12-31T12:24:05.641Z,100430
2022-12-31T12:25:04.201Z,100430
2022-12-31T12:26:00.755Z,100430
2022-12-31T12:27:00.606Z,100430
2022-12-31T12:28:10.129Z,100420
2022-12-31T12:29:09.180Z,100420
2022-12-31T12:30:08.723Z,100430
2022-12-31T12:31:03.627Z,100430
2022-12-31T12:32:05.186Z,100430
2022-12-31T12:33:01.377Z,100430
2022-12-31T12:34:00.616Z,100420
2022-12-31T12:35:00.605Z,100420
2022-12-31T12:36:05.487Z,100430
2022-12-31T12:37:00.683Z,100430